sensor_id;sensor_type;location;lat;lon;timestamp;P1;durP1;ratioP1;P2;durP2;ratioP2
1328;SDS011;658;48.820;9.354;2022-07-29T00:01:23;5.30;;;4.90;;
1328;SDS011;658;48.820;9.354;2022-07-29T00:05:24;4.87;;;4.47;;
1328;SDS011;658;48.820;9.354;2022-07-29T00:09:24;5.93;;;5.50;;
1328;SDS011;658;48.820;9.354;2022-07-29T00:13:25;5.13;;;4.73;;
1328;SDS011;658;48.820;9.354;2022-07-29T00:17:26;5.53;;;5.13;;
1328;SDS011;658;48.820;9.354;2022-07-29T00:21:26;5.07;;;4.77;;
1328;SDS011;658;48.820;9.354;2022-07-29T00:25:27;5.20;;;4.90;;
1328;SDS011;658;48.820;9.354;2022-07-29T00:29:27;5.63;;;5.23;;
1328;SDS011;658;48.820;9.354;2022-07-29T00:33:28;6.20;;;5.77;;
1328;SDS011;658;48.820;9.354;2022-07-29T00:37:29;4.90;;;4.50;;
1328;SDS011;658;48.820;9.354;2022-07-29T00:41:30;5.13;;;4.70;;
1328;SDS011;658;48.820;9.354;2022-07-29T00:45:30;4.93;;;4.63;;
1328;SDS011;658;48.820;9.354;2022-07-29T00:49:32;5.07;;;4.77;;
1328;SDS011;658;48.820;9.354;2022-07-29T00:53:33;5.63;;;5.23;;
1328;SDS011;658;48.820;9.354;2022-07-29T00:57:35;5.30;;;4.90;;
1328;SDS011;658;48.820;9.354;2022-07-29T01:01:36;5.50;;;5.10;;
1328;SDS011;658;48.820;9.354;2022-07-29T01:05:37;5.53;;;5.03;;
1328;SDS011;658;48.820;9.354;2022-07-29T01:09:39;5.53;;;5.13;;
1328;SDS011;658;48.820;9.354;2022-07-29T01:13:42;5.57;;;5.17;;
1328;SDS011;658;48.820;9.354;2022-07-29T01:22:10;5.03;;;4.63;;
1328;SDS011;658;48.820;9.354;2022-07-29T01:30:38;5.50;;;5.10;;
1328;SDS011;658;48.820;9.354;2022-07-29T01:39:19;5.03;;;4.73;;
1328;SDS011;658;48.820;9.354;2022-07-29T01:43:44;5.80;;;5.40;;
1328;SDS011;658;48.820;9.354;2022-07-29T01:47:58;5.47;;;5.17;;
1328;SDS011;658;48.820;9.354;2022-07-29T01:52:07;5.37;;;4.97;;
1328;SDS011;658;48.820;9.354;2022-07-29T01:56:13;6.20;;;4.87;;
1328;SDS011;658;48.820;9.354;2022-07-29T02:00:16;5.10;;;4.70;;
1328;SDS011;658;48.820;9.354;2022-07-29T02:04:18;5.07;;;4.77;;
1328;SDS011;658;48.820;9.354;2022-07-29T02:08:20;4.57;;;4.27;;
1328;SDS011;658;48.820;9.354;2022-07-29T02:12:22;5.00;;;4.70;;
1328;SDS011;658;48.820;9.354;2022-07-29T02:16:25;4.90;;;4.50;;
1328;SDS011;658;48.820;9.354;2022-07-29T02:20:28;7.00;;;4.90;;
1328;SDS011;658;48.820;9.354;2022-07-29T02:24:30;5.37;;;5.07;;
1328;SDS011;658;48.820;9.354;2022-07-29T02:28:31;5.10;;;4.80;;
1328;SDS011;658;48.820;9.354;2022-07-29T02:32:37;5.50;;;5.10;;
1328;SDS011;658;48.820;9.354;2022-07-29T02:36:39;5.20;;;4.80;;
1328;SDS011;658;48.820;9.354;2022-07-29T02:40:40;5.87;;;5.47;;
1328;SDS011;658;48.820;9.354;2022-07-29T02:44:43;5.23;;;4.93;;
1328;SDS011;658;48.820;9.354;2022-07-29T02:48:48;5.80;;;5.50;;
1328;SDS011;658;48.820;9.354;2022-07-29T02:53:05;5.83;;;5.33;;
1328;SDS011;658;48.820;9.354;2022-07-29T02:57:20;5.70;;;5.20;;
1328;SDS011;658;48.820;9.354;2022-07-29T03:01:42;5.63;;;5.17;;
1328;SDS011;658;48.820;9.354;2022-07-29T03:05:44;5.20;;;4.73;;
1328;SDS011;658;48.820;9.354;2022-07-29T03:09:45;5.37;;;4.90;;
1328;SDS011;658;48.820;9.354;2022-07-29T03:13:46;5.33;;;5.00;;
1328;SDS011;658;48.820;9.354;2022-07-29T03:17:47;5.90;;;5.53;;
1328;SDS011;658;48.820;9.354;2022-07-29T03:21:49;5.70;;;5.30;;
1328;SDS011;658;48.820;9.354;2022-07-29T03:25:50;5.67;;;5.37;;
1328;SDS011;658;48.820;9.354;2022-07-29T03:29:50;5.40;;;5.03;;
1328;SDS011;658;48.820;9.354;2022-07-29T03:33:51;5.47;;;5.07;;
1328;SDS011;658;48.820;9.354;2022-07-29T03:37:52;6.00;;;5.70;;
1328;SDS011;658;48.820;9.354;2022-07-29T03:41:53;5.57;;;5.17;;
1328;SDS011;658;48.820;9.354;2022-07-29T03:45:56;5.40;;;5.10;;
1328;SDS011;658;48.820;9.354;2022-07-29T03:50:01;5.17;;;4.83;;
1328;SDS011;658;48.820;9.354;2022-07-29T03:54:06;4.87;;;4.50;;
1328;SDS011;658;48.820;9.354;2022-07-29T03:58:06;4.83;;;4.50;;
1328;SDS011;658;48.820;9.354;2022-07-29T04:02:08;5.57;;;5.27;;
1328;SDS011;658;48.820;9.354;2022-07-29T04:06:11;4.83;;;4.53;;
1328;SDS011;658;48.820;9.354;2022-07-29T04:10:12;4.83;;;4.43;;
1328;SDS011;658;48.820;9.354;2022-07-29T04:14:12;5.60;;;5.20;;
1328;SDS011;658;48.820;9.354;2022-07-29T04:18:13;5.10;;;4.70;;
1328;SDS011;658;48.820;9.354;2022-07-29T04:22:14;5.00;;;4.70;;
1328;SDS011;658;48.820;9.354;2022-07-29T04:26:14;5.00;;;4.70;;
1328;SDS011;658;48.820;9.354;2022-07-29T04:30:16;5.10;;;4.80;;
1328;SDS011;658;48.820;9.354;2022-07-29T04:34:16;5.40;;;5.00;;
1328;SDS011;658;48.820;9.354;2022-07-29T04:38:17;5.10;;;4.70;;
1328;SDS011;658;48.820;9.354;2022-07-29T04:42:18;5.50;;;5.00;;
1328;SDS011;658;48.820;9.354;2022-07-29T04:46:19;5.23;;;4.83;;
1328;SDS011;658;48.820;9.354;2022-07-29T04:50:19;4.83;;;4.50;;
1328;SDS011;658;48.820;9.354;2022-07-29T04:54:20;5.30;;;4.90;;
1328;SDS011;658;48.820;9.354;2022-07-29T04:58:21;5.27;;;4.83;;
1328;SDS011;658;48.820;9.354;2022-07-29T05:02:23;5.07;;;4.77;;
1328;SDS011;658;48.820;9.354;2022-07-29T05:06:24;5.23;;;4.83;;
1328;SDS011;658;48.820;9.354;2022-07-29T05:10:24;5.57;;;5.07;;
1328;SDS011;658;48.820;9.354;2022-07-29T05:14:25;5.43;;;4.93;;
1328;SDS011;658;48.820;9.354;2022-07-29T05:18:26;4.70;;;4.40;;
1328;SDS011;658;48.820;9.354;2022-07-29T05:22:26;6.40;;;5.83;;
1328;SDS011;658;48.820;9.354;2022-07-29T05:26:27;5.73;;;5.33;;
1328;SDS011;658;48.820;9.354;2022-07-29T05:30:28;5.70;;;5.30;;
1328;SDS011;658;48.820;9.354;2022-07-29T05:34:29;5.77;;;5.33;;
1328;SDS011;658;48.820;9.354;2022-07-29T05:38:29;5.83;;;5.33;;
1328;SDS011;658;48.820;9.354;2022-07-29T05:42:30;5.73;;;5.40;;
1328;SDS011;658;48.820;9.354;2022-07-29T05:46:31;6.37;;;5.40;;
1328;SDS011;658;48.820;9.354;2022-07-29T05:50:31;6.80;;;6.07;;
1328;SDS011;658;48.820;9.354;2022-07-29T05:54:32;5.80;;;5.30;;
1328;SDS011;658;48.820;9.354;2022-07-29T05:58:34;5.37;;;4.97;;
1328;SDS011;658;48.820;9.354;2022-07-29T06:02:34;5.63;;;5.23;;
1328;SDS011;658;48.820;9.354;2022-07-29T06:06:35;5.63;;;5.23;;
1328;SDS011;658;48.820;9.354;2022-07-29T06:10:35;5.90;;;5.40;;
1328;SDS011;658;48.820;9.354;2022-07-29T06:14:36;6.10;;;5.50;;
1328;SDS011;658;48.820;9.354;2022-07-29T06:18:38;5.80;;;5.40;;
1328;SDS011;658;48.820;9.354;2022-07-29T06:22:38;5.87;;;5.47;;
1328;SDS011;658;48.820;9.354;2022-07-29T06:26:39;5.43;;;5.03;;
1328;SDS011;658;48.820;9.354;2022-07-29T06:30:40;5.40;;;5.03;;
1328;SDS011;658;48.820;9.354;2022-07-29T06:34:41;6.10;;;5.70;;
1328;SDS011;658;48.820;9.354;2022-07-29T06:38:41;5.73;;;5.33;;
1328;SDS011;658;48.820;9.354;2022-07-29T06:42:43;5.70;;;5.30;;
1328;SDS011;658;48.820;9.354;2022-07-29T06:46:44;5.97;;;5.30;;
1328;SDS011;658;48.820;9.354;2022-07-29T06:50:47;5.40;;;4.90;;
1328;SDS011;658;48.820;9.354;2022-07-29T06:54:47;5.53;;;5.13;;
1328;SDS011;658;48.820;9.354;2022-07-29T06:58:48;5.50;;;5.10;;
1328;SDS011;658;48.820;9.354;2022-07-29T07:02:49;5.23;;;4.93;;
1328;SDS011;658;48.820;9.354;2022-07-29T07:06:49;4.80;;;4.50;;
1328;SDS011;658;48.820;9.354;2022-07-29T07:10:50;4.77;;;4.47;;
1328;SDS011;658;48.820;9.354;2022-07-29T07:14:51;4.37;;;4.03;;
1328;SDS011;658;48.820;9.354;2022-07-29T07:18:52;5.27;;;4.87;;
1328;SDS011;658;48.820;9.354;2022-07-29T07:22:53;4.77;;;4.47;;
1328;SDS011;658;48.820;9.354;2022-07-29T07:26:54;4.70;;;4.30;;
1328;SDS011;658;48.820;9.354;2022-07-29T07:30:54;4.90;;;4.50;;
1328;SDS011;658;48.820;9.354;2022-07-29T07:34:55;4.47;;;4.27;;
1328;SDS011;658;48.820;9.354;2022-07-29T07:38:56;4.57;;;4.27;;
1328;SDS011;658;48.820;9.354;2022-07-29T07:42:56;4.43;;;4.13;;
1328;SDS011;658;48.820;9.354;2022-07-29T07:46:57;5.20;;;4.70;;
1328;SDS011;658;48.820;9.354;2022-07-29T07:50:58;4.67;;;4.37;;
1328;SDS011;658;48.820;9.354;2022-07-29T07:54:59;4.23;;;4.03;;
1328;SDS011;658;48.820;9.354;2022-07-29T07:58:59;4.33;;;4.03;;
1328;SDS011;658;48.820;9.354;2022-07-29T08:03:00;4.53;;;4.13;;
1328;SDS011;658;48.820;9.354;2022-07-29T08:07:01;4.13;;;3.90;;
1328;SDS011;658;48.820;9.354;2022-07-29T08:11:02;4.37;;;4.07;;
1328;SDS011;658;48.820;9.354;2022-07-29T08:15:03;3.70;;;3.50;;
1328;SDS011;658;48.820;9.354;2022-07-29T08:19:06;4.87;;;4.43;;
1328;SDS011;658;48.820;9.354;2022-07-29T08:23:07;3.93;;;3.73;;
1328;SDS011;658;48.820;9.354;2022-07-29T08:27:11;4.80;;;4.30;;
1328;SDS011;658;48.820;9.354;2022-07-29T08:31:12;4.30;;;3.90;;
1328;SDS011;658;48.820;9.354;2022-07-29T08:35:13;4.00;;;3.70;;
1328;SDS011;658;48.820;9.354;2022-07-29T08:39:14;4.87;;;4.30;;
1328;SDS011;658;48.820;9.354;2022-07-29T08:43:14;4.57;;;4.27;;
1328;SDS011;658;48.820;9.354;2022-07-29T08:47:15;4.13;;;3.93;;
1328;SDS011;658;48.820;9.354;2022-07-29T08:51:18;4.37;;;3.97;;
1328;SDS011;658;48.820;9.354;2022-07-29T08:55:19;4.30;;;3.87;;
1328;SDS011;658;48.820;9.354;2022-07-29T08:59:21;4.00;;;3.80;;
1328;SDS011;658;48.820;9.354;2022-07-29T09:03:25;4.53;;;4.23;;
1328;SDS011;658;48.820;9.354;2022-07-29T09:07:29;5.00;;;4.60;;
1328;SDS011;658;48.820;9.354;2022-07-29T09:11:31;4.50;;;4.17;;
1328;SDS011;658;48.820;9.354;2022-07-29T09:15:33;5.10;;;4.70;;
1328;SDS011;658;48.820;9.354;2022-07-29T09:19:34;4.70;;;4.40;;
1328;SDS011;658;48.820;9.354;2022-07-29T09:23:36;4.70;;;4.40;;
1328;SDS011;658;48.820;9.354;2022-07-29T09:27:37;5.27;;;4.87;;
1328;SDS011;658;48.820;9.354;2022-07-29T09:31:39;4.90;;;4.60;;
1328;SDS011;658;48.820;9.354;2022-07-29T09:35:42;4.20;;;3.90;;
1328;SDS011;658;48.820;9.354;2022-07-29T09:39:42;5.97;;;5.47;;
1328;SDS011;658;48.820;9.354;2022-07-29T09:43:55;4.90;;;4.60;;
1328;SDS011;658;48.820;9.354;2022-07-29T09:47:57;5.10;;;4.73;;
1328;SDS011;658;48.820;9.354;2022-07-29T09:52:03;5.07;;;4.67;;
1328;SDS011;658;48.820;9.354;2022-07-29T09:56:06;4.50;;;4.20;;
1328;SDS011;658;48.820;9.354;2022-07-29T10:00:08;4.30;;;4.10;;
1328;SDS011;658;48.820;9.354;2022-07-29T10:04:37;5.60;;;5.20;;
1328;SDS011;658;48.820;9.354;2022-07-29T10:08:41;5.10;;;4.80;;
1328;SDS011;658;48.820;9.354;2022-07-29T10:12:48;4.80;;;4.50;;
1328;SDS011;658;48.820;9.354;2022-07-29T10:16:50;5.47;;;5.07;;
1328;SDS011;658;48.820;9.354;2022-07-29T10:20:51;5.00;;;4.60;;
1328;SDS011;658;48.820;9.354;2022-07-29T10:24:53;6.07;;;5.57;;
1328;SDS011;658;48.820;9.354;2022-07-29T10:28:55;6.00;;;5.40;;
1328;SDS011;658;48.820;9.354;2022-07-29T10:33:04;5.23;;;4.93;;
1328;SDS011;658;48.820;9.354;2022-07-29T10:37:21;5.57;;;5.17;;
1328;SDS011;658;48.820;9.354;2022-07-29T10:41:36;4.70;;;4.40;;
1328;SDS011;658;48.820;9.354;2022-07-29T10:45:47;5.80;;;5.40;;
1328;SDS011;658;48.820;9.354;2022-07-29T10:49:59;5.70;;;5.20;;
1328;SDS011;658;48.820;9.354;2022-07-29T10:54:02;5.93;;;5.33;;
1328;SDS011;658;48.820;9.354;2022-07-29T10:58:16;5.97;;;5.57;;
1328;SDS011;658;48.820;9.354;2022-07-29T11:15:21;5.63;;;5.30;;
1328;SDS011;658;48.820;9.354;2022-07-29T11:19:23;5.60;;;5.20;;
1328;SDS011;658;48.820;9.354;2022-07-29T11:23:25;5.70;;;5.30;;
1328;SDS011;658;48.820;9.354;2022-07-29T11:27:35;6.20;;;5.70;;
1328;SDS011;658;48.820;9.354;2022-07-29T11:31:42;5.90;;;5.40;;
1328;SDS011;658;48.820;9.354;2022-07-29T11:36:06;5.77;;;5.37;;
1328;SDS011;658;48.820;9.354;2022-07-29T11:40:11;6.53;;;6.03;;
1328;SDS011;658;48.820;9.354;2022-07-29T11:44:13;6.93;;;6.33;;
1328;SDS011;658;48.820;9.354;2022-07-29T11:48:16;6.13;;;5.63;;
1328;SDS011;658;48.820;9.354;2022-07-29T11:52:18;7.80;;;7.10;;
1328;SDS011;658;48.820;9.354;2022-07-29T11:56:20;7.50;;;6.90;;
1328;SDS011;658;48.820;9.354;2022-07-29T12:04:29;7.60;;;7.00;;
1328;SDS011;658;48.820;9.354;2022-07-29T12:08:30;6.90;;;6.40;;
1328;SDS011;658;48.820;9.354;2022-07-29T12:12:40;7.63;;;7.03;;
1328;SDS011;658;48.820;9.354;2022-07-29T12:16:41;6.37;;;5.87;;
1328;SDS011;658;48.820;9.354;2022-07-29T12:20:42;5.40;;;4.90;;
1328;SDS011;658;48.820;9.354;2022-07-29T12:24:44;6.30;;;5.80;;
1328;SDS011;658;48.820;9.354;2022-07-29T12:28:44;5.53;;;5.13;;
1328;SDS011;658;48.820;9.354;2022-07-29T12:32:46;5.03;;;4.63;;
1328;SDS011;658;48.820;9.354;2022-07-29T12:36:48;6.03;;;5.20;;
1328;SDS011;658;48.820;9.354;2022-07-29T12:40:49;4.80;;;4.50;;
1328;SDS011;658;48.820;9.354;2022-07-29T12:44:52;5.03;;;4.73;;
1328;SDS011;658;48.820;9.354;2022-07-29T12:48:53;5.07;;;4.70;;
1328;SDS011;658;48.820;9.354;2022-07-29T12:53:06;4.83;;;4.33;;
1328;SDS011;658;48.820;9.354;2022-07-29T12:57:08;5.40;;;4.90;;
1328;SDS011;658;48.820;9.354;2022-07-29T13:01:11;5.00;;;4.50;;
1328;SDS011;658;48.820;9.354;2022-07-29T13:05:14;4.30;;;4.00;;
1328;SDS011;658;48.820;9.354;2022-07-29T13:13:18;4.60;;;4.30;;
1328;SDS011;658;48.820;9.354;2022-07-29T13:17:19;3.97;;;3.67;;
1328;SDS011;658;48.820;9.354;2022-07-29T13:21:22;4.27;;;3.97;;
1328;SDS011;658;48.820;9.354;2022-07-29T13:25:27;3.93;;;3.63;;
1328;SDS011;658;48.820;9.354;2022-07-29T13:29:30;3.93;;;3.63;;
1328;SDS011;658;48.820;9.354;2022-07-29T13:33:31;4.00;;;3.73;;
1328;SDS011;658;48.820;9.354;2022-07-29T13:37:32;3.83;;;3.23;;
1328;SDS011;658;48.820;9.354;2022-07-29T13:41:34;4.67;;;4.27;;
1328;SDS011;658;48.820;9.354;2022-07-29T13:45:35;4.33;;;4.00;;
1328;SDS011;658;48.820;9.354;2022-07-29T13:49:36;4.00;;;3.70;;
1328;SDS011;658;48.820;9.354;2022-07-29T13:53:36;3.63;;;3.43;;
1328;SDS011;658;48.820;9.354;2022-07-29T13:57:37;3.53;;;3.23;;
1328;SDS011;658;48.820;9.354;2022-07-29T14:01:38;3.90;;;3.60;;
1328;SDS011;658;48.820;9.354;2022-07-29T14:05:41;4.10;;;3.80;;
1328;SDS011;658;48.820;9.354;2022-07-29T14:09:42;4.47;;;4.17;;
1328;SDS011;658;48.820;9.354;2022-07-29T14:13:43;4.00;;;3.70;;
1328;SDS011;658;48.820;9.354;2022-07-29T14:17:44;4.27;;;3.97;;
1328;SDS011;658;48.820;9.354;2022-07-29T14:21:44;4.40;;;4.10;;
1328;SDS011;658;48.820;9.354;2022-07-29T14:25:45;4.53;;;4.23;;
1328;SDS011;658;48.820;9.354;2022-07-29T14:29:46;3.97;;;3.67;;
1328;SDS011;658;48.820;9.354;2022-07-29T14:33:46;4.37;;;4.07;;
1328;SDS011;658;48.820;9.354;2022-07-29T14:37:47;4.67;;;4.27;;
1328;SDS011;658;48.820;9.354;2022-07-29T14:41:48;3.93;;;3.73;;
1328;SDS011;658;48.820;9.354;2022-07-29T14:45:50;4.20;;;3.90;;
1328;SDS011;658;48.820;9.354;2022-07-29T14:49:51;4.37;;;4.00;;
1328;SDS011;658;48.820;9.354;2022-07-29T14:53:52;5.00;;;4.60;;
1328;SDS011;658;48.820;9.354;2022-07-29T14:57:52;4.87;;;4.50;;
1328;SDS011;658;48.820;9.354;2022-07-29T15:01:54;5.00;;;4.63;;
1328;SDS011;658;48.820;9.354;2022-07-29T15:05:54;4.87;;;4.57;;
1328;SDS011;658;48.820;9.354;2022-07-29T15:09:55;5.50;;;5.10;;
1328;SDS011;658;48.820;9.354;2022-07-29T15:13:56;5.10;;;4.80;;
1328;SDS011;658;48.820;9.354;2022-07-29T15:17:57;4.70;;;4.30;;
1328;SDS011;658;48.820;9.354;2022-07-29T15:21:57;6.13;;;5.63;;
1328;SDS011;658;48.820;9.354;2022-07-29T15:25:58;5.10;;;4.80;;
1328;SDS011;658;48.820;9.354;2022-07-29T15:29:59;4.70;;;4.40;;
1328;SDS011;658;48.820;9.354;2022-07-29T15:33:59;5.60;;;5.13;;
1328;SDS011;658;48.820;9.354;2022-07-29T15:38:01;5.27;;;4.67;;
1328;SDS011;658;48.820;9.354;2022-07-29T15:42:02;5.50;;;5.10;;
1328;SDS011;658;48.820;9.354;2022-07-29T15:46:03;5.00;;;4.70;;
1328;SDS011;658;48.820;9.354;2022-07-29T15:50:22;6.33;;;5.80;;
1328;SDS011;658;48.820;9.354;2022-07-29T15:54:23;5.37;;;4.97;;
1328;SDS011;658;48.820;9.354;2022-07-29T15:58:23;5.23;;;4.93;;
1328;SDS011;658;48.820;9.354;2022-07-29T16:02:24;5.90;;;5.50;;
1328;SDS011;658;48.820;9.354;2022-07-29T16:06:25;5.30;;;5.00;;
1328;SDS011;658;48.820;9.354;2022-07-29T16:10:25;5.20;;;4.80;;
1328;SDS011;658;48.820;9.354;2022-07-29T16:14:26;5.63;;;5.13;;
1328;SDS011;658;48.820;9.354;2022-07-29T16:18:27;5.03;;;4.73;;
1328;SDS011;658;48.820;9.354;2022-07-29T16:22:27;5.97;;;5.47;;
1328;SDS011;658;48.820;9.354;2022-07-29T16:26:28;6.00;;;5.60;;
1328;SDS011;658;48.820;9.354;2022-07-29T16:30:29;5.27;;;4.97;;
1328;SDS011;658;48.820;9.354;2022-07-29T16:34:29;5.17;;;4.87;;
1328;SDS011;658;48.820;9.354;2022-07-29T16:38:30;5.30;;;5.00;;
1328;SDS011;658;48.820;9.354;2022-07-29T16:42:31;5.13;;;4.83;;
1328;SDS011;658;48.820;9.354;2022-07-29T16:46:32;5.53;;;5.13;;
1328;SDS011;658;48.820;9.354;2022-07-29T16:50:37;4.83;;;4.43;;
1328;SDS011;658;48.820;9.354;2022-07-29T16:54:37;5.60;;;5.20;;
1328;SDS011;658;48.820;9.354;2022-07-29T16:58:38;5.57;;;5.20;;
1328;SDS011;658;48.820;9.354;2022-07-29T17:02:39;4.97;;;4.67;;
1328;SDS011;658;48.820;9.354;2022-07-29T17:06:40;5.07;;;4.77;;
1328;SDS011;658;48.820;9.354;2022-07-29T17:10:41;5.00;;;4.70;;
1328;SDS011;658;48.820;9.354;2022-07-29T17:14:41;5.20;;;4.80;;
1328;SDS011;658;48.820;9.354;2022-07-29T17:18:42;4.87;;;4.63;;
1328;SDS011;658;48.820;9.354;2022-07-29T17:22:42;5.43;;;5.03;;
1328;SDS011;658;48.820;9.354;2022-07-29T17:26:43;5.10;;;4.80;;
1328;SDS011;658;48.820;9.354;2022-07-29T17:30:44;5.80;;;5.47;;
1328;SDS011;658;48.820;9.354;2022-07-29T17:34:44;5.40;;;5.00;;
1328;SDS011;658;48.820;9.354;2022-07-29T17:38:45;5.40;;;5.00;;
1328;SDS011;658;48.820;9.354;2022-07-29T17:42:45;5.00;;;4.70;;
1328;SDS011;658;48.820;9.354;2022-07-29T17:46:46;5.50;;;5.10;;
1328;SDS011;658;48.820;9.354;2022-07-29T17:50:47;5.70;;;5.30;;
1328;SDS011;658;48.820;9.354;2022-07-29T17:54:48;6.10;;;5.70;;
1328;SDS011;658;48.820;9.354;2022-07-29T17:58:48;4.80;;;4.40;;
1328;SDS011;658;48.820;9.354;2022-07-29T18:02:49;5.47;;;5.10;;
1328;SDS011;658;48.820;9.354;2022-07-29T18:06:50;5.53;;;5.13;;
1328;SDS011;658;48.820;9.354;2022-07-29T18:10:50;5.30;;;5.00;;
1328;SDS011;658;48.820;9.354;2022-07-29T18:14:51;5.43;;;5.13;;
1328;SDS011;658;48.820;9.354;2022-07-29T18:18:52;5.47;;;5.07;;
1328;SDS011;658;48.820;9.354;2022-07-29T18:22:53;6.73;;;4.90;;
1328;SDS011;658;48.820;9.354;2022-07-29T18:26:53;5.27;;;4.97;;
1328;SDS011;658;48.820;9.354;2022-07-29T18:30:55;6.53;;;5.60;;
1328;SDS011;658;48.820;9.354;2022-07-29T18:34:55;5.20;;;4.90;;
1328;SDS011;658;48.820;9.354;2022-07-29T18:38:56;5.50;;;5.20;;
1328;SDS011;658;48.820;9.354;2022-07-29T18:42:56;4.87;;;4.57;;
1328;SDS011;658;48.820;9.354;2022-07-29T18:46:57;5.17;;;4.87;;
1328;SDS011;658;48.820;9.354;2022-07-29T18:50:58;5.90;;;5.50;;
1328;SDS011;658;48.820;9.354;2022-07-29T18:54:59;5.40;;;5.00;;
1328;SDS011;658;48.820;9.354;2022-07-29T18:59:01;5.97;;;5.47;;
1328;SDS011;658;48.820;9.354;2022-07-29T19:03:02;5.53;;;5.17;;
1328;SDS011;658;48.820;9.354;2022-07-29T19:07:02;5.97;;;5.50;;
1328;SDS011;658;48.820;9.354;2022-07-29T19:11:03;5.53;;;5.00;;
1328;SDS011;658;48.820;9.354;2022-07-29T19:15:04;6.50;;;6.00;;
1328;SDS011;658;48.820;9.354;2022-07-29T19:19:06;6.30;;;5.90;;
1328;SDS011;658;48.820;9.354;2022-07-29T19:23:07;5.73;;;5.33;;
1328;SDS011;658;48.820;9.354;2022-07-29T19:27:08;5.67;;;5.27;;
1328;SDS011;658;48.820;9.354;2022-07-29T19:31:08;6.40;;;5.80;;
1328;SDS011;658;48.820;9.354;2022-07-29T19:35:09;5.50;;;5.10;;
1328;SDS011;658;48.820;9.354;2022-07-29T19:39:30;6.20;;;5.73;;
1328;SDS011;658;48.820;9.354;2022-07-29T19:43:30;5.87;;;5.47;;
1328;SDS011;658;48.820;9.354;2022-07-29T19:47:31;5.90;;;5.50;;
1328;SDS011;658;48.820;9.354;2022-07-29T19:51:32;6.90;;;6.40;;
1328;SDS011;658;48.820;9.354;2022-07-29T19:55:33;6.70;;;6.20;;
1328;SDS011;658;48.820;9.354;2022-07-29T19:59:34;6.10;;;5.70;;
1328;SDS011;658;48.820;9.354;2022-07-29T20:03:35;6.60;;;6.00;;
1328;SDS011;658;48.820;9.354;2022-07-29T20:07:36;5.43;;;5.10;;
1328;SDS011;658;48.820;9.354;2022-07-29T20:11:37;6.60;;;6.10;;
1328;SDS011;658;48.820;9.354;2022-07-29T20:15:38;6.53;;;6.03;;
1328;SDS011;658;48.820;9.354;2022-07-29T20:19:39;6.10;;;5.70;;
1328;SDS011;658;48.820;9.354;2022-07-29T20:23:41;6.03;;;5.63;;
1328;SDS011;658;48.820;9.354;2022-07-29T20:27:42;5.77;;;5.37;;
1328;SDS011;658;48.820;9.354;2022-07-29T20:31:42;7.00;;;6.53;;
1328;SDS011;658;48.820;9.354;2022-07-29T20:35:44;6.50;;;5.90;;
1328;SDS011;658;48.820;9.354;2022-07-29T20:39:46;5.73;;;5.43;;
1328;SDS011;658;48.820;9.354;2022-07-29T20:43:46;6.03;;;5.67;;
1328;SDS011;658;48.820;9.354;2022-07-29T20:47:50;6.57;;;6.17;;
1328;SDS011;658;48.820;9.354;2022-07-29T20:51:51;5.30;;;4.90;;
1328;SDS011;658;48.820;9.354;2022-07-29T20:55:52;5.90;;;5.50;;
1328;SDS011;658;48.820;9.354;2022-07-29T20:59:52;6.07;;;5.67;;
1328;SDS011;658;48.820;9.354;2022-07-29T21:03:53;6.53;;;6.13;;
1328;SDS011;658;48.820;9.354;2022-07-29T21:07:54;6.13;;;5.63;;
1328;SDS011;658;48.820;9.354;2022-07-29T21:11:54;5.80;;;5.40;;
1328;SDS011;658;48.820;9.354;2022-07-29T21:15:55;6.53;;;6.03;;
1328;SDS011;658;48.820;9.354;2022-07-29T21:20:01;6.07;;;5.63;;
1328;SDS011;658;48.820;9.354;2022-07-29T21:24:06;6.57;;;6.17;;
1328;SDS011;658;48.820;9.354;2022-07-29T21:28:07;5.90;;;5.50;;
1328;SDS011;658;48.820;9.354;2022-07-29T21:32:26;6.40;;;6.00;;
1328;SDS011;658;48.820;9.354;2022-07-29T21:36:26;6.17;;;5.77;;
1328;SDS011;658;48.820;9.354;2022-07-29T21:40:27;5.50;;;5.20;;
1328;SDS011;658;48.820;9.354;2022-07-29T21:44:29;6.60;;;6.00;;
1328;SDS011;658;48.820;9.354;2022-07-29T21:48:29;6.07;;;5.57;;
1328;SDS011;658;48.820;9.354;2022-07-29T21:52:30;5.90;;;5.50;;
1328;SDS011;658;48.820;9.354;2022-07-29T21:56:31;6.20;;;5.80;;
1328;SDS011;658;48.820;9.354;2022-07-29T22:00:31;6.10;;;5.70;;
1328;SDS011;658;48.820;9.354;2022-07-29T22:04:35;6.37;;;5.97;;
1328;SDS011;658;48.820;9.354;2022-07-29T22:08:36;5.63;;;5.23;;
1328;SDS011;658;48.820;9.354;2022-07-29T22:12:39;5.47;;;5.17;;
1328;SDS011;658;48.820;9.354;2022-07-29T22:16:40;5.73;;;5.33;;
1328;SDS011;658;48.820;9.354;2022-07-29T22:20:40;6.23;;;5.63;;
1328;SDS011;658;48.820;9.354;2022-07-29T22:24:41;6.03;;;5.63;;
1328;SDS011;658;48.820;9.354;2022-07-29T22:28:41;6.23;;;5.83;;
1328;SDS011;658;48.820;9.354;2022-07-29T22:32:42;6.67;;;6.17;;
1328;SDS011;658;48.820;9.354;2022-07-29T22:36:43;6.10;;;5.70;;
1328;SDS011;658;48.820;9.354;2022-07-29T22:40:44;6.00;;;5.60;;
1328;SDS011;658;48.820;9.354;2022-07-29T22:44:45;6.33;;;5.90;;
1328;SDS011;658;48.820;9.354;2022-07-29T22:48:46;6.07;;;5.57;;
1328;SDS011;658;48.820;9.354;2022-07-29T22:52:46;6.00;;;5.60;;
1328;SDS011;658;48.820;9.354;2022-07-29T22:56:47;5.47;;;5.17;;
1328;SDS011;658;48.820;9.354;2022-07-29T23:00:48;6.53;;;6.03;;
1328;SDS011;658;48.820;9.354;2022-07-29T23:04:48;6.03;;;5.63;;
1328;SDS011;658;48.820;9.354;2022-07-29T23:08:49;6.20;;;5.70;;
1328;SDS011;658;48.820;9.354;2022-07-29T23:12:49;5.57;;;5.13;;
1328;SDS011;658;48.820;9.354;2022-07-29T23:16:50;5.77;;;5.37;;
1328;SDS011;658;48.820;9.354;2022-07-29T23:20:51;5.87;;;5.47;;
1328;SDS011;658;48.820;9.354;2022-07-29T23:24:51;5.90;;;5.43;;
1328;SDS011;658;48.820;9.354;2022-07-29T23:28:52;6.20;;;5.80;;
1328;SDS011;658;48.820;9.354;2022-07-29T23:32:53;5.53;;;5.23;;
1328;SDS011;658;48.820;9.354;2022-07-29T23:36:54;6.10;;;5.70;;
1328;SDS011;658;48.820;9.354;2022-07-29T23:40:54;6.27;;;5.77;;
1328;SDS011;658;48.820;9.354;2022-07-29T23:44:55;5.30;;;4.90;;
1328;SDS011;658;48.820;9.354;2022-07-29T23:48:56;6.30;;;5.90;;
1328;SDS011;658;48.820;9.354;2022-07-29T23:52:56;5.67;;;5.37;;
1328;SDS011;658;48.820;9.354;2022-07-29T23:56:57;5.80;;;5.30;;
